sensor_id;sensor_type;location;lat;lon;timestamp;temperature;humidity
62154;DHT22;48140;45.486;9.226;2023-07-31T01:09:45;25.70;99.90
62154;DHT22;48140;45.486;9.226;2023-07-31T01:12:13;25.70;99.90
62154;DHT22;48140;45.486;9.226;2023-07-31T01:14:39;25.60;99.90
62154;DHT22;48140;45.486;9.226;2023-07-31T01:17:05;25.60;99.90
62154;DHT22;48140;45.486;9.226;2023-07-31T01:19:30;25.50;99.90
62154;DHT22;48140;45.486;9.226;2023-07-31T01:26:55;25.40;99.90
62154;DHT22;48140;45.486;9.226;2023-07-31T01:31:55;25.30;99.90
62154;DHT22;48140;45.486;9.226;2023-07-31T01:34:22;25.40;99.90
62154;DHT22;48140;45.486;9.226;2023-07-31T01:36:47;25.40;99.90
62154;DHT22;48140;45.486;9.226;2023-07-31T01:39:13;25.30;99.90
62154;DHT22;48140;45.486;9.226;2023-07-31T01:41:40;25.20;99.90
62154;DHT22;48140;45.486;9.226;2023-07-31T01:44:06;25.10;99.90
62154;DHT22;48140;45.486;9.226;2023-07-31T01:46:32;25.20;99.90
62154;DHT22;48140;45.486;9.226;2023-07-31T01:48:57;25.10;99.90
62154;DHT22;48140;45.486;9.226;2023-07-31T01:51:23;25.10;99.90
62154;DHT22;48140;45.486;9.226;2023-07-31T01:53:48;25.10;99.90
62154;DHT22;48140;45.486;9.226;2023-07-31T01:56:14;25.10;99.90
62154;DHT22;48140;45.486;9.226;2023-07-31T01:58:39;25.00;99.90
62154;DHT22;48140;45.486;9.226;2023-07-31T02:01:05;25.00;99.90
62154;DHT22;48140;45.486;9.226;2023-07-31T02:03:30;24.90;99.90
62154;DHT22;48140;45.486;9.226;2023-07-31T02:05:56;24.90;99.90
62154;DHT22;48140;45.486;9.226;2023-07-31T02:08:22;24.90;99.90
62154;DHT22;48140;45.486;9.226;2023-07-31T02:10:47;24.90;99.90
62154;DHT22;48140;45.486;9.226;2023-07-31T02:13:13;24.90;99.90
62154;DHT22;48140;45.486;9.226;2023-07-31T02:15:38;24.90;99.90
62154;DHT22;48140;45.486;9.226;2023-07-31T02:18:04;24.80;99.90
62154;DHT22;48140;45.486;9.226;2023-07-31T02:20:29;24.80;99.90
62154;DHT22;48140;45.486;9.226;2023-07-31T02:22:55;24.70;99.90
62154;DHT22;48140;45.486;9.226;2023-07-31T02:25:20;24.80;99.90
62154;DHT22;48140;45.486;9.226;2023-07-31T02:27:45;24.70;99.90
62154;DHT22;48140;45.486;9.226;2023-07-31T02:30:11;24.70;99.90
62154;DHT22;48140;45.486;9.226;2023-07-31T02:32:36;24.70;99.90
62154;DHT22;48140;45.486;9.226;2023-07-31T02:35:02;24.70;99.90
62154;DHT22;48140;45.486;9.226;2023-07-31T02:37:28;24.70;99.90
62154;DHT22;48140;45.486;9.226;2023-07-31T02:39:54;24.70;99.90
62154;DHT22;48140;45.486;9.226;2023-07-31T02:42:19;24.70;99.90
62154;DHT22;48140;45.486;9.226;2023-07-31T02:44:45;24.70;99.90
62154;DHT22;48140;45.486;9.226;2023-07-31T02:47:10;24.70;99.90
62154;DHT22;48140;45.486;9.226;2023-07-31T02:49:36;24.70;99.90
62154;DHT22;48140;45.486;9.226;2023-07-31T02:52:01;24.70;99.90
62154;DHT22;48140;45.486;9.226;2023-07-31T02:54:27;24.70;99.90
62154;DHT22;48140;45.486;9.226;2023-07-31T02:56:52;24.50;99.90
62154;DHT22;48140;45.486;9.226;2023-07-31T02:59:20;24.50;99.90
62154;DHT22;48140;45.486;9.226;2023-07-31T03:01:45;24.50;99.90
62154;DHT22;48140;45.486;9.226;2023-07-31T03:04:11;24.40;99.90
62154;DHT22;48140;45.486;9.226;2023-07-31T03:06:36;24.50;99.90
62154;DHT22;48140;45.486;9.226;2023-07-31T03:09:02;24.40;99.90
62154;DHT22;48140;45.486;9.226;2023-07-31T03:11:27;24.40;99.90
62154;DHT22;48140;45.486;9.226;2023-07-31T03:13:53;24.40;99.90
62154;DHT22;48140;45.486;9.226;2023-07-31T03:16:19;24.30;99.90
62154;DHT22;48140;45.486;9.226;2023-07-31T03:18:44;24.30;99.90
62154;DHT22;48140;45.486;9.226;2023-07-31T03:21:10;24.30;99.90
62154;DHT22;48140;45.486;9.226;2023-07-31T03:23:35;24.30;99.90
62154;DHT22;48140;45.486;9.226;2023-07-31T03:26:01;24.40;99.90
62154;DHT22;48140;45.486;9.226;2023-07-31T03:28:29;24.30;99.90
62154;DHT22;48140;45.486;9.226;2023-07-31T03:30:54;24.30;99.90
62154;DHT22;48140;45.486;9.226;2023-07-31T03:33:20;24.40;99.90
62154;DHT22;48140;45.486;9.226;2023-07-31T03:35:45;24.40;99.90
62154;DHT22;48140;45.486;9.226;2023-07-31T03:38:11;24.40;99.90
62154;DHT22;48140;45.486;9.226;2023-07-31T03:40:36;24.30;99.90
62154;DHT22;48140;45.486;9.226;2023-07-31T03:43:02;24.30;99.90
62154;DHT22;48140;45.486;9.226;2023-07-31T03:45:27;24.40;99.90
62154;DHT22;48140;45.486;9.226;2023-07-31T03:47:53;24.30;99.90
62154;DHT22;48140;45.486;9.226;2023-07-31T03:50:20;24.30;99.90
62154;DHT22;48140;45.486;9.226;2023-07-31T03:52:45;24.40;99.90
62154;DHT22;48140;45.486;9.226;2023-07-31T03:55:11;24.30;99.90
62154;DHT22;48140;45.486;9.226;2023-07-31T03:57:37;24.30;99.90
62154;DHT22;48140;45.486;9.226;2023-07-31T04:00:02;24.30;99.90
62154;DHT22;48140;45.486;9.226;2023-07-31T04:02:28;24.30;99.90
62154;DHT22;48140;45.486;9.226;2023-07-31T04:04:54;24.30;99.90
62154;DHT22;48140;45.486;9.226;2023-07-31T04:07:20;24.30;99.90
62154;DHT22;48140;45.486;9.226;2023-07-31T04:09:45;24.30;99.90
62154;DHT22;48140;45.486;9.226;2023-07-31T04:12:11;24.30;99.90
62154;DHT22;48140;45.486;9.226;2023-07-31T04:14:36;24.30;99.90
62154;DHT22;48140;45.486;9.226;2023-07-31T04:17:02;24.30;99.90
62154;DHT22;48140;45.486;9.226;2023-07-31T04:19:27;24.30;99.90
62154;DHT22;48140;45.486;9.226;2023-07-31T04:21:53;24.30;99.90
62154;DHT22;48140;45.486;9.226;2023-07-31T04:24:18;24.30;99.90
62154;DHT22;48140;45.486;9.226;2023-07-31T04:26:50;24.30;99.90
62154;DHT22;48140;45.486;9.226;2023-07-31T04:29:15;24.30;99.90
62154;DHT22;48140;45.486;9.226;2023-07-31T04:31:41;24.40;99.90
62154;DHT22;48140;45.486;9.226;2023-07-31T04:34:06;24.50;99.90
62154;DHT22;48140;45.486;9.226;2023-07-31T04:36:33;24.50;99.90
62154;DHT22;48140;45.486;9.226;2023-07-31T04:38:58;24.50;99.90
62154;DHT22;48140;45.486;9.226;2023-07-31T04:41:24;24.60;99.90
62154;DHT22;48140;45.486;9.226;2023-07-31T04:43:49;24.60;99.90
62154;DHT22;48140;45.486;9.226;2023-07-31T04:46:15;24.70;99.90
62154;DHT22;48140;45.486;9.226;2023-07-31T04:48:41;24.70;99.90
62154;DHT22;48140;45.486;9.226;2023-07-31T04:51:06;24.70;99.90
62154;DHT22;48140;45.486;9.226;2023-07-31T04:53:32;24.80;99.90
62154;DHT22;48140;45.486;9.226;2023-07-31T04:55:57;24.80;99.90
62154;DHT22;48140;45.486;9.226;2023-07-31T04:58:23;24.90;99.90
62154;DHT22;48140;45.486;9.226;2023-07-31T05:00:48;24.90;99.90
62154;DHT22;48140;45.486;9.226;2023-07-31T05:03:14;25.00;99.90
62154;DHT22;48140;45.486;9.226;2023-07-31T05:05:42;25.00;99.90
62154;DHT22;48140;45.486;9.226;2023-07-31T05:08:07;25.00;99.90
62154;DHT22;48140;45.486;9.226;2023-07-31T05:10:33;25.10;99.90
62154;DHT22;48140;45.486;9.226;2023-07-31T05:12:58;25.20;99.90
62154;DHT22;48140;45.486;9.226;2023-07-31T05:15:24;25.30;99.90
62154;DHT22;48140;45.486;9.226;2023-07-31T05:17:49;25.40;99.90
62154;DHT22;48140;45.486;9.226;2023-07-31T05:20:15;25.50;99.90
62154;DHT22;48140;45.486;9.226;2023-07-31T05:22:40;25.50;99.90
62154;DHT22;48140;45.486;9.226;2023-07-31T05:25:06;25.60;99.90
62154;DHT22;48140;45.486;9.226;2023-07-31T05:27:32;25.60;99.90
62154;DHT22;48140;45.486;9.226;2023-07-31T05:29:57;25.70;99.90
62154;DHT22;48140;45.486;9.226;2023-07-31T05:32:23;25.80;99.90
62154;DHT22;48140;45.486;9.226;2023-07-31T05:34:50;25.80;99.90
62154;DHT22;48140;45.486;9.226;2023-07-31T05:37:16;25.80;99.90
62154;DHT22;48140;45.486;9.226;2023-07-31T05:39:41;25.90;99.90
62154;DHT22;48140;45.486;9.226;2023-07-31T05:42:07;26.10;99.90
62154;DHT22;48140;45.486;9.226;2023-07-31T05:44:32;26.20;99.90
62154;DHT22;48140;45.486;9.226;2023-07-31T05:46:58;26.30;99.90
62154;DHT22;48140;45.486;9.226;2023-07-31T05:49:23;26.40;99.90
62154;DHT22;48140;45.486;9.226;2023-07-31T05:54:24;26.40;99.90
62154;DHT22;48140;45.486;9.226;2023-07-31T05:56:50;26.40;99.90
62154;DHT22;48140;45.486;9.226;2023-07-31T06:04:26;26.50;99.90
62154;DHT22;48140;45.486;9.226;2023-07-31T06:06:52;26.60;99.90
62154;DHT22;48140;45.486;9.226;2023-07-31T06:09:17;26.70;99.90
62154;DHT22;48140;45.486;9.226;2023-07-31T06:11:43;26.80;99.90
62154;DHT22;48140;45.486;9.226;2023-07-31T06:14:08;26.80;99.90
62154;DHT22;48140;45.486;9.226;2023-07-31T06:16:34;26.90;99.90
62154;DHT22;48140;45.486;9.226;2023-07-31T06:18:59;26.80;99.90
62154;DHT22;48140;45.486;9.226;2023-07-31T06:21:25;26.90;99.90
62154;DHT22;48140;45.486;9.226;2023-07-31T06:23:55;26.90;99.90
62154;DHT22;48140;45.486;9.226;2023-07-31T06:26:22;26.80;99.90
62154;DHT22;48140;45.486;9.226;2023-07-31T06:28:47;26.90;99.90
62154;DHT22;48140;45.486;9.226;2023-07-31T06:31:13;26.90;99.90
62154;DHT22;48140;45.486;9.226;2023-07-31T06:33:38;26.80;99.90
62154;DHT22;48140;45.486;9.226;2023-07-31T06:36:07;26.70;99.90
62154;DHT22;48140;45.486;9.226;2023-07-31T06:38:32;26.80;99.90
62154;DHT22;48140;45.486;9.226;2023-07-31T06:40:58;26.80;99.90
62154;DHT22;48140;45.486;9.226;2023-07-31T06:43:24;26.90;99.90
62154;DHT22;48140;45.486;9.226;2023-07-31T06:45:49;27.00;99.90
62154;DHT22;48140;45.486;9.226;2023-07-31T06:48:16;27.00;99.90
62154;DHT22;48140;45.486;9.226;2023-07-31T06:50:42;27.10;99.90
62154;DHT22;48140;45.486;9.226;2023-07-31T06:53:07;27.10;99.90
62154;DHT22;48140;45.486;9.226;2023-07-31T06:55:33;27.00;99.90
62154;DHT22;48140;45.486;9.226;2023-07-31T06:57:58;27.20;99.90
62154;DHT22;48140;45.486;9.226;2023-07-31T07:00:25;27.20;99.90
62154;DHT22;48140;45.486;9.226;2023-07-31T07:02:50;27.20;99.90
62154;DHT22;48140;45.486;9.226;2023-07-31T07:05:16;27.40;99.90
62154;DHT22;48140;45.486;9.226;2023-07-31T07:07:42;27.40;99.90
62154;DHT22;48140;45.486;9.226;2023-07-31T07:10:08;27.50;99.90
62154;DHT22;48140;45.486;9.226;2023-07-31T07:12:34;27.50;99.90
62154;DHT22;48140;45.486;9.226;2023-07-31T07:15:00;27.70;99.90
62154;DHT22;48140;45.486;9.226;2023-07-31T07:17:27;27.70;99.90
62154;DHT22;48140;45.486;9.226;2023-07-31T07:19:53;27.80;99.90
62154;DHT22;48140;45.486;9.226;2023-07-31T07:22:18;28.10;99.90
62154;DHT22;48140;45.486;9.226;2023-07-31T07:24:44;28.30;96.80
62154;DHT22;48140;45.486;9.226;2023-07-31T07:43:15;28.40;91.20
62154;DHT22;48140;45.486;9.226;2023-07-31T07:45:40;28.30;90.10
62154;DHT22;48140;45.486;9.226;2023-07-31T07:48:06;28.40;90.60
62154;DHT22;48140;45.486;9.226;2023-07-31T07:50:31;28.60;89.60
62154;DHT22;48140;45.486;9.226;2023-07-31T07:52:58;28.80;88.20
62154;DHT22;48140;45.486;9.226;2023-07-31T07:55:23;29.00;85.30
62154;DHT22;48140;45.486;9.226;2023-07-31T08:08:14;29.20;81.00
62154;DHT22;48140;45.486;9.226;2023-07-31T08:10:39;29.10;83.40
62154;DHT22;48140;45.486;9.226;2023-07-31T08:13:05;29.00;83.60
62154;DHT22;48140;45.486;9.226;2023-07-31T08:15:30;29.10;83.00
62154;DHT22;48140;45.486;9.226;2023-07-31T08:17:56;29.30;82.40
62154;DHT22;48140;45.486;9.226;2023-07-31T08:20:21;29.20;81.60
62154;DHT22;48140;45.486;9.226;2023-07-31T08:40:56;29.00;79.40
62154;DHT22;48140;45.486;9.226;2023-07-31T08:43:21;29.40;77.30
62154;DHT22;48140;45.486;9.226;2023-07-31T08:45:48;29.70;76.20
62154;DHT22;48140;45.486;9.226;2023-07-31T08:48:15;29.80;75.30
62154;DHT22;48140;45.486;9.226;2023-07-31T08:50:40;30.00;76.10
62154;DHT22;48140;45.486;9.226;2023-07-31T08:53:07;29.90;74.10
62154;DHT22;48140;45.486;9.226;2023-07-31T08:55:32;29.90;74.80
62154;DHT22;48140;45.486;9.226;2023-07-31T08:57:58;29.80;75.40
62154;DHT22;48140;45.486;9.226;2023-07-31T09:00:24;29.70;76.60
62154;DHT22;48140;45.486;9.226;2023-07-31T09:03:09;29.70;77.90
62154;DHT22;48140;45.486;9.226;2023-07-31T09:05:35;30.00;77.10
62154;DHT22;48140;45.486;9.226;2023-07-31T09:08:01;30.20;71.50
62154;DHT22;48140;45.486;9.226;2023-07-31T09:10:27;30.20;68.20
62154;DHT22;48140;45.486;9.226;2023-07-31T09:12:53;30.30;66.50
62154;DHT22;48140;45.486;9.226;2023-07-31T09:15:18;30.40;66.50
62154;DHT22;48140;45.486;9.226;2023-07-31T09:17:44;30.70;66.10
62154;DHT22;48140;45.486;9.226;2023-07-31T09:22:41;30.80;66.00
62154;DHT22;48140;45.486;9.226;2023-07-31T09:25:43;30.90;64.70
62154;DHT22;48140;45.486;9.226;2023-07-31T09:28:00;31.00;67.30
62154;DHT22;48140;45.486;9.226;2023-07-31T09:30:25;31.10;68.30
62154;DHT22;48140;45.486;9.226;2023-07-31T09:32:52;31.10;65.00
62154;DHT22;48140;45.486;9.226;2023-07-31T09:35:29;31.10;65.60
62154;DHT22;48140;45.486;9.226;2023-07-31T09:37:57;31.10;66.50
62154;DHT22;48140;45.486;9.226;2023-07-31T09:40:32;31.10;66.50
62154;DHT22;48140;45.486;9.226;2023-07-31T09:42:59;31.30;66.90
62154;DHT22;48140;45.486;9.226;2023-07-31T09:45:25;31.50;66.40
62154;DHT22;48140;45.486;9.226;2023-07-31T09:47:51;31.60;66.20
62154;DHT22;48140;45.486;9.226;2023-07-31T09:50:17;31.60;66.30
62154;DHT22;48140;45.486;9.226;2023-07-31T09:52:43;31.40;68.30
62154;DHT22;48140;45.486;9.226;2023-07-31T09:55:08;31.90;66.90
62154;DHT22;48140;45.486;9.226;2023-07-31T09:57:36;32.10;65.70
62154;DHT22;48140;45.486;9.226;2023-07-31T10:00:04;32.30;64.70
62154;DHT22;48140;45.486;9.226;2023-07-31T10:02:30;32.50;63.40
62154;DHT22;48140;45.486;9.226;2023-07-31T10:04:57;32.70;62.90
62154;DHT22;48140;45.486;9.226;2023-07-31T10:07:25;32.60;61.70
62154;DHT22;48140;45.486;9.226;2023-07-31T10:09:53;32.90;61.30
62154;DHT22;48140;45.486;9.226;2023-07-31T10:12:20;32.60;63.90
62154;DHT22;48140;45.486;9.226;2023-07-31T10:14:46;32.60;62.90
62154;DHT22;48140;45.486;9.226;2023-07-31T10:17:12;32.30;63.90
62154;DHT22;48140;45.486;9.226;2023-07-31T10:19:38;32.40;63.90
62154;DHT22;48140;45.486;9.226;2023-07-31T10:22:04;32.50;63.60
62154;DHT22;48140;45.486;9.226;2023-07-31T10:24:31;32.70;64.00
62154;DHT22;48140;45.486;9.226;2023-07-31T10:26:57;31.50;67.50
62154;DHT22;48140;45.486;9.226;2023-07-31T10:29:23;31.50;69.00
62154;DHT22;48140;45.486;9.226;2023-07-31T10:31:49;31.80;68.80
62154;DHT22;48140;45.486;9.226;2023-07-31T10:34:16;31.80;69.00
62154;DHT22;48140;45.486;9.226;2023-07-31T10:36:42;32.10;66.50
62154;DHT22;48140;45.486;9.226;2023-07-31T10:39:33;31.80;67.70
62154;DHT22;48140;45.486;9.226;2023-07-31T10:41:53;31.90;68.40
62154;DHT22;48140;45.486;9.226;2023-07-31T10:44:18;32.10;67.30
62154;DHT22;48140;45.486;9.226;2023-07-31T10:46:45;32.30;66.90
62154;DHT22;48140;45.486;9.226;2023-07-31T10:49:10;31.90;67.00
62154;DHT22;48140;45.486;9.226;2023-07-31T10:51:47;32.10;66.60
62154;DHT22;48140;45.486;9.226;2023-07-31T10:54:13;32.20;66.00
62154;DHT22;48140;45.486;9.226;2023-07-31T10:56:40;31.90;68.50
62154;DHT22;48140;45.486;9.226;2023-07-31T10:59:09;31.90;69.10
62154;DHT22;48140;45.486;9.226;2023-07-31T11:01:50;32.30;67.50
62154;DHT22;48140;45.486;9.226;2023-07-31T11:04:17;32.30;66.90
62154;DHT22;48140;45.486;9.226;2023-07-31T11:06:55;32.00;69.50
62154;DHT22;48140;45.486;9.226;2023-07-31T11:09:20;32.00;69.30
62154;DHT22;48140;45.486;9.226;2023-07-31T11:11:46;32.30;67.50
62154;DHT22;48140;45.486;9.226;2023-07-31T11:14:11;32.70;66.40
62154;DHT22;48140;45.486;9.226;2023-07-31T11:16:37;33.00;63.20
62154;DHT22;48140;45.486;9.226;2023-07-31T11:19:02;33.30;61.40
62154;DHT22;48140;45.486;9.226;2023-07-31T11:21:33;32.80;62.10
62154;DHT22;48140;45.486;9.226;2023-07-31T11:24:00;33.20;61.90
62154;DHT22;48140;45.486;9.226;2023-07-31T11:26:25;33.60;59.90
62154;DHT22;48140;45.486;9.226;2023-07-31T11:31:26;33.90;56.00
62154;DHT22;48140;45.486;9.226;2023-07-31T11:34:03;34.00;56.20
62154;DHT22;48140;45.486;9.226;2023-07-31T11:36:29;33.60;56.60
62154;DHT22;48140;45.486;9.226;2023-07-31T11:38:54;33.80;57.60
62154;DHT22;48140;45.486;9.226;2023-07-31T11:41:32;34.20;56.60
62154;DHT22;48140;45.486;9.226;2023-07-31T11:44:00;34.30;55.90
62154;DHT22;48140;45.486;9.226;2023-07-31T11:46:26;34.30;55.30
62154;DHT22;48140;45.486;9.226;2023-07-31T11:48:58;33.20;57.60
62154;DHT22;48140;45.486;9.226;2023-07-31T11:51:24;32.60;60.00
62154;DHT22;48140;45.486;9.226;2023-07-31T11:53:53;32.30;62.10
62154;DHT22;48140;45.486;9.226;2023-07-31T11:56:20;32.20;63.80
62154;DHT22;48140;45.486;9.226;2023-07-31T11:58:49;32.90;61.60
62154;DHT22;48140;45.486;9.226;2023-07-31T12:01:15;33.50;58.90
62154;DHT22;48140;45.486;9.226;2023-07-31T12:03:45;33.90;56.50
62154;DHT22;48140;45.486;9.226;2023-07-31T12:06:11;34.20;55.30
62154;DHT22;48140;45.486;9.226;2023-07-31T12:08:36;34.40;54.40
62154;DHT22;48140;45.486;9.226;2023-07-31T12:11:03;34.10;55.00
62154;DHT22;48140;45.486;9.226;2023-07-31T12:13:29;34.40;54.20
62154;DHT22;48140;45.486;9.226;2023-07-31T12:15:56;34.50;52.90
62154;DHT22;48140;45.486;9.226;2023-07-31T12:18:23;34.60;52.20
62154;DHT22;48140;45.486;9.226;2023-07-31T12:20:53;34.60;53.30
62154;DHT22;48140;45.486;9.226;2023-07-31T12:23:19;34.30;53.40
62154;DHT22;48140;45.486;9.226;2023-07-31T12:26:06;34.60;52.50
62154;DHT22;48140;45.486;9.226;2023-07-31T12:28:50;34.50;51.90
62154;DHT22;48140;45.486;9.226;2023-07-31T12:31:17;34.00;53.00
62154;DHT22;48140;45.486;9.226;2023-07-31T12:33:43;34.70;51.50
62154;DHT22;48140;45.486;9.226;2023-07-31T12:36:10;35.20;49.70
62154;DHT22;48140;45.486;9.226;2023-07-31T12:38:36;35.40;49.10
62154;DHT22;48140;45.486;9.226;2023-07-31T12:41:01;35.50;49.70
62154;DHT22;48140;45.486;9.226;2023-07-31T12:43:27;35.50;50.10
62154;DHT22;48140;45.486;9.226;2023-07-31T12:45:53;35.40;50.40
62154;DHT22;48140;45.486;9.226;2023-07-31T12:48:19;35.50;49.90
62154;DHT22;48140;45.486;9.226;2023-07-31T12:50:45;35.50;49.90
62154;DHT22;48140;45.486;9.226;2023-07-31T12:53:10;35.70;49.00
62154;DHT22;48140;45.486;9.226;2023-07-31T12:55:36;35.40;49.40
62154;DHT22;48140;45.486;9.226;2023-07-31T12:58:02;34.90;50.30
62154;DHT22;48140;45.486;9.226;2023-07-31T13:00:28;35.00;49.20
62154;DHT22;48140;45.486;9.226;2023-07-31T13:02:53;34.90;50.20
62154;DHT22;48140;45.486;9.226;2023-07-31T13:05:19;34.90;50.80
62154;DHT22;48140;45.486;9.226;2023-07-31T13:07:45;34.70;51.30
62154;DHT22;48140;45.486;9.226;2023-07-31T13:10:11;34.90;51.20
62154;DHT22;48140;45.486;9.226;2023-07-31T13:12:37;35.10;49.80
62154;DHT22;48140;45.486;9.226;2023-07-31T13:15:06;34.80;50.80
62154;DHT22;48140;45.486;9.226;2023-07-31T13:17:32;34.80;49.40
62154;DHT22;48140;45.486;9.226;2023-07-31T13:19:57;34.90;49.40
62154;DHT22;48140;45.486;9.226;2023-07-31T13:22:23;34.80;49.00
62154;DHT22;48140;45.486;9.226;2023-07-31T13:24:49;34.80;49.50
62154;DHT22;48140;45.486;9.226;2023-07-31T13:27:15;35.20;49.50
62154;DHT22;48140;45.486;9.226;2023-07-31T13:29:44;35.70;47.90
62154;DHT22;48140;45.486;9.226;2023-07-31T13:32:09;35.20;48.40
62154;DHT22;48140;45.486;9.226;2023-07-31T13:34:35;35.70;47.80
62154;DHT22;48140;45.486;9.226;2023-07-31T13:37:00;35.90;46.70
62154;DHT22;48140;45.486;9.226;2023-07-31T13:39:26;35.90;46.80
62154;DHT22;48140;45.486;9.226;2023-07-31T13:41:51;36.30;46.30
62154;DHT22;48140;45.486;9.226;2023-07-31T13:44:17;35.90;46.10
62154;DHT22;48140;45.486;9.226;2023-07-31T13:46:42;36.00;45.00
62154;DHT22;48140;45.486;9.226;2023-07-31T13:49:08;35.00;46.80
62154;DHT22;48140;45.486;9.226;2023-07-31T13:51:33;34.50;49.10
62154;DHT22;48140;45.486;9.226;2023-07-31T13:53:59;34.10;49.40
62154;DHT22;48140;45.486;9.226;2023-07-31T13:56:24;34.80;49.00
62154;DHT22;48140;45.486;9.226;2023-07-31T13:58:50;35.30;47.60
62154;DHT22;48140;45.486;9.226;2023-07-31T14:01:15;35.70;46.00
62154;DHT22;48140;45.486;9.226;2023-07-31T14:03:41;35.90;44.80
62154;DHT22;48140;45.486;9.226;2023-07-31T14:06:06;36.00;44.70
62154;DHT22;48140;45.486;9.226;2023-07-31T14:08:32;36.20;43.80
62154;DHT22;48140;45.486;9.226;2023-07-31T14:10:58;36.30;44.60
62154;DHT22;48140;45.486;9.226;2023-07-31T14:13:23;36.10;44.70
62154;DHT22;48140;45.486;9.226;2023-07-31T14:15:49;35.70;44.80
62154;DHT22;48140;45.486;9.226;2023-07-31T14:18:14;35.80;44.20
62154;DHT22;48140;45.486;9.226;2023-07-31T14:20:40;36.10;44.10
62154;DHT22;48140;45.486;9.226;2023-07-31T14:23:06;35.90;44.70
62154;DHT22;48140;45.486;9.226;2023-07-31T14:25:31;35.80;44.10
62154;DHT22;48140;45.486;9.226;2023-07-31T14:27:57;35.50;44.80
62154;DHT22;48140;45.486;9.226;2023-07-31T14:30:22;35.30;44.80
62154;DHT22;48140;45.486;9.226;2023-07-31T14:32:48;35.10;46.10
62154;DHT22;48140;45.486;9.226;2023-07-31T14:35:14;35.40;45.90
62154;DHT22;48140;45.486;9.226;2023-07-31T14:37:40;35.40;46.40
62154;DHT22;48140;45.486;9.226;2023-07-31T14:40:10;35.50;45.80
62154;DHT22;48140;45.486;9.226;2023-07-31T14:42:36;35.70;46.30
62154;DHT22;48140;45.486;9.226;2023-07-31T14:45:02;35.20;46.70
62154;DHT22;48140;45.486;9.226;2023-07-31T14:47:28;35.40;46.30
62154;DHT22;48140;45.486;9.226;2023-07-31T14:49:56;35.70;45.60
62154;DHT22;48140;45.486;9.226;2023-07-31T14:52:21;35.80;45.20
62154;DHT22;48140;45.486;9.226;2023-07-31T14:54:47;35.80;44.90
62154;DHT22;48140;45.486;9.226;2023-07-31T14:57:12;35.90;43.80
62154;DHT22;48140;45.486;9.226;2023-07-31T14:59:38;35.70;44.10
62154;DHT22;48140;45.486;9.226;2023-07-31T15:02:03;35.40;44.60
62154;DHT22;48140;45.486;9.226;2023-07-31T15:04:29;35.30;43.60
62154;DHT22;48140;45.486;9.226;2023-07-31T15:06:56;35.40;43.70
62154;DHT22;48140;45.486;9.226;2023-07-31T15:09:22;35.90;42.60
62154;DHT22;48140;45.486;9.226;2023-07-31T15:11:48;36.10;42.90
62154;DHT22;48140;45.486;9.226;2023-07-31T15:14:13;36.10;42.40
62154;DHT22;48140;45.486;9.226;2023-07-31T15:16:39;35.70;43.00
62154;DHT22;48140;45.486;9.226;2023-07-31T15:19:04;36.00;42.70
62154;DHT22;48140;45.486;9.226;2023-07-31T15:21:30;36.10;42.00
62154;DHT22;48140;45.486;9.226;2023-07-31T15:23:55;36.00;41.30
62154;DHT22;48140;45.486;9.226;2023-07-31T15:26:21;35.20;42.90
62154;DHT22;48140;45.486;9.226;2023-07-31T15:28:48;35.30;43.50
62154;DHT22;48140;45.486;9.226;2023-07-31T15:31:14;35.70;43.20
62154;DHT22;48140;45.486;9.226;2023-07-31T15:33:40;36.00;42.40
62154;DHT22;48140;45.486;9.226;2023-07-31T15:36:05;36.30;41.80
62154;DHT22;48140;45.486;9.226;2023-07-31T15:38:31;36.40;41.30
62154;DHT22;48140;45.486;9.226;2023-07-31T15:40:57;36.40;41.50
62154;DHT22;48140;45.486;9.226;2023-07-31T15:43:23;36.40;41.60
62154;DHT22;48140;45.486;9.226;2023-07-31T15:45:48;36.30;41.70
62154;DHT22;48140;45.486;9.226;2023-07-31T15:48:14;35.40;42.10
62154;DHT22;48140;45.486;9.226;2023-07-31T15:50:39;35.40;43.80
62154;DHT22;48140;45.486;9.226;2023-07-31T15:53:05;35.60;43.00
62154;DHT22;48140;45.486;9.226;2023-07-31T15:55:30;35.50;42.90
62154;DHT22;48140;45.486;9.226;2023-07-31T15:57:56;35.80;42.30
62154;DHT22;48140;45.486;9.226;2023-07-31T16:00:21;35.00;43.20
62154;DHT22;48140;45.486;9.226;2023-07-31T16:02:47;35.00;42.60
62154;DHT22;48140;45.486;9.226;2023-07-31T16:05:13;35.20;42.90
62154;DHT22;48140;45.486;9.226;2023-07-31T16:07:39;35.40;42.60
62154;DHT22;48140;45.486;9.226;2023-07-31T16:10:05;34.90;43.60
62154;DHT22;48140;45.486;9.226;2023-07-31T16:12:31;34.80;44.30
62154;DHT22;48140;45.486;9.226;2023-07-31T16:14:57;34.90;44.20
62154;DHT22;48140;45.486;9.226;2023-07-31T16:17:22;34.70;44.80
62154;DHT22;48140;45.486;9.226;2023-07-31T16:19:48;34.60;46.10
62154;DHT22;48140;45.486;9.226;2023-07-31T16:22:13;34.30;46.10
62154;DHT22;48140;45.486;9.226;2023-07-31T16:24:39;34.30;46.40
62154;DHT22;48140;45.486;9.226;2023-07-31T16:27:05;34.00;47.20
62154;DHT22;48140;45.486;9.226;2023-07-31T16:29:30;33.70;47.80
62154;DHT22;48140;45.486;9.226;2023-07-31T16:31:56;33.60;48.50
62154;DHT22;48140;45.486;9.226;2023-07-31T16:34:21;33.90;47.60
62154;DHT22;48140;45.486;9.226;2023-07-31T16:36:49;33.90;47.20
62154;DHT22;48140;45.486;9.226;2023-07-31T16:39:14;34.10;47.50
62154;DHT22;48140;45.486;9.226;2023-07-31T16:41:40;34.00;46.90
62154;DHT22;48140;45.486;9.226;2023-07-31T16:44:05;34.00;47.40
62154;DHT22;48140;45.486;9.226;2023-07-31T16:46:31;34.00;47.30
62154;DHT22;48140;45.486;9.226;2023-07-31T16:48:56;33.90;47.00
62154;DHT22;48140;45.486;9.226;2023-07-31T16:51:22;33.80;47.10
62154;DHT22;48140;45.486;9.226;2023-07-31T16:53:47;33.20;47.20
62154;DHT22;48140;45.486;9.226;2023-07-31T16:56:14;33.10;50.80
62154;DHT22;48140;45.486;9.226;2023-07-31T16:58:40;33.30;49.90
62154;DHT22;48140;45.486;9.226;2023-07-31T17:01:05;33.30;50.30
62154;DHT22;48140;45.486;9.226;2023-07-31T17:03:31;33.10;50.50
62154;DHT22;48140;45.486;9.226;2023-07-31T17:05:56;32.90;50.90
62154;DHT22;48140;45.486;9.226;2023-07-31T17:08:22;32.80;50.70
62154;DHT22;48140;45.486;9.226;2023-07-31T17:10:47;32.70;51.70
62154;DHT22;48140;45.486;9.226;2023-07-31T17:13:13;32.60;52.30
62154;DHT22;48140;45.486;9.226;2023-07-31T17:15:38;32.80;52.40
62154;DHT22;48140;45.486;9.226;2023-07-31T17:18:04;32.80;52.30
62154;DHT22;48140;45.486;9.226;2023-07-31T17:20:30;33.10;51.50
62154;DHT22;48140;45.486;9.226;2023-07-31T17:22:57;33.20;51.00
62154;DHT22;48140;45.486;9.226;2023-07-31T17:25:22;33.10;51.40
62154;DHT22;48140;45.486;9.226;2023-07-31T17:27:48;32.70;53.00
62154;DHT22;48140;45.486;9.226;2023-07-31T17:30:13;32.60;54.00
62154;DHT22;48140;45.486;9.226;2023-07-31T17:32:39;32.50;55.30
62154;DHT22;48140;45.486;9.226;2023-07-31T17:35:04;32.40;54.40
62154;DHT22;48140;45.486;9.226;2023-07-31T17:37:30;32.20;54.90